Aeroporto :
LOGIN :

Iscrizione | Disclaimer

   EN    FR    IT 

 










Sommario :    VFR   VFR Marginale   IFR   IFR Intensivo   IFR Molto Intensivo
Visibilità : 
Base nubi : 
>= 8 km
>= 3000ft
5 / 8 km
1000 / 3000 ft
1500m / 5 km
500 / 1000 ft
800 / 1500m
200 / 500 ft
< 800m
< 200 ft
Simboli :   Temporali  Nebbia  Neve Forte  Precipitazioni Forti  Vento > 20 kt
SIGMETs :   Varie  Temporali  Ghiacco  Turbolenza  Onda orograficha  Ceneri Vulcaniche







- Altitudine del aeroporto : 13 ft
- Codice IATA : OST


EBOS - Oostend bruges Int.

ULTIMO METAR :
  • 230220Z VRB02KT CAVOK 10/07 Q1026 NOSIG

METARs OBSOLETI :
  • 230150Z 17003KT CAVOK 10/08 Q1026 NOSIG
  • 230120Z 15003KT CAVOK 10/08 Q1026 NOSIG
  • 230050Z 16004KT CAVOK 10/08 Q1026 NOSIG
  • 230020Z 17003KT CAVOK 10/08 Q1026 NOSIG
  • 222350Z 20003KT CAVOK 11/08 Q1026 NOSIG
  • 222320Z 26003KT 200V310 CAVOK 11/08 Q1026 NOSIG

TAF TAF EBOS
Valido dal 23 a 00 ore il 24 a 06 ore UTC


222320Z 2300/2406 20003KT CAVOK
TEMPO 2302/2307 2400 MIFG BR
PROB30
TEMPO 2304/2306 0800 BCFG
Nessun NOTAM noto per questo aeroporto.



MetMap, La meteo Aeronautica in un colpo d'occhio ! - Copyright ORBIFLY Dicembre 2007 - Disclaimer

ORBIFLY MET'MAP TEAM :

Programmazione e sviluppo : Alexandra Zaïnal
Concezione e sviluppo : Baudouin d'Aumeries
Co-Programmazione e sviluppo : Marc-Olivier Méhu
Supporto tecnico e logistico : Manuel Goepfert
Aiuto per la traduzione : Arnaldo La Scala

Contatto : metmap@orbifly.com




FONTI E CREDITI :

   NOAA